sensor_id;sensor_type;location;lat;lon;timestamp;pressure;altitude;pressure_sealevel;temperature;humidity
61318;BME280;47201;40.428;-8.436;2022-10-17T00:00:59;100428.34;;;17.63;100.00
61318;BME280;47201;40.428;-8.436;2022-10-17T00:03:00;100429.09;;;17.67;100.00
61318;BME280;47201;40.428;-8.436;2022-10-17T00:05:00;100434.38;;;17.67;100.00
61318;BME280;47201;40.428;-8.436;2022-10-17T00:07:00;100433.47;;;17.68;100.00
61318;BME280;47201;40.428;-8.436;2022-10-17T00:09:01;100451.13;;;17.67;100.00
61318;BME280;47201;40.428;-8.436;2022-10-17T00:11:03;100449.25;;;17.69;100.00
61318;BME280;47201;40.428;-8.436;2022-10-17T00:13:05;100437.09;;;17.65;100.00
61318;BME280;47201;40.428;-8.436;2022-10-17T00:15:06;100439.78;;;17.64;100.00
61318;BME280;47201;40.428;-8.436;2022-10-17T00:17:06;100433.75;;;17.60;100.00
61318;BME280;47201;40.428;-8.436;2022-10-17T00:19:07;100441.72;;;17.58;100.00
61318;BME280;47201;40.428;-8.436;2022-10-17T00:21:14;100445.28;;;17.57;100.00
61318;BME280;47201;40.428;-8.436;2022-10-17T00:23:14;100439.13;;;17.57;100.00
61318;BME280;47201;40.428;-8.436;2022-10-17T00:25:15;100439.22;;;17.54;100.00
61318;BME280;47201;40.428;-8.436;2022-10-17T00:27:15;100432.63;;;17.42;100.00
61318;BME280;47201;40.428;-8.436;2022-10-17T00:29:16;100430.81;;;17.17;100.00
61318;BME280;47201;40.428;-8.436;2022-10-17T00:31:17;100436.88;;;16.92;100.00
61318;BME280;47201;40.428;-8.436;2022-10-17T00:33:18;100436.53;;;16.75;100.00
61318;BME280;47201;40.428;-8.436;2022-10-17T00:35:18;100437.66;;;16.68;100.00
61318;BME280;47201;40.428;-8.436;2022-10-17T00:37:19;100440.22;;;16.69;100.00
61318;BME280;47201;40.428;-8.436;2022-10-17T00:39:20;100433.03;;;16.74;100.00
61318;BME280;47201;40.428;-8.436;2022-10-17T00:41:22;100423.09;;;16.83;100.00
61318;BME280;47201;40.428;-8.436;2022-10-17T00:43:22;100429.78;;;16.94;100.00
61318;BME280;47201;40.428;-8.436;2022-10-17T00:47:23;100424.97;;;17.07;100.00
61318;BME280;47201;40.428;-8.436;2022-10-17T00:49:25;100424.81;;;17.12;100.00
61318;BME280;47201;40.428;-8.436;2022-10-17T00:51:29;100416.84;;;17.13;100.00
61318;BME280;47201;40.428;-8.436;2022-10-17T00:53:32;100423.72;;;17.18;100.00
61318;BME280;47201;40.428;-8.436;2022-10-17T00:55:34;100416.56;;;17.21;100.00
61318;BME280;47201;40.428;-8.436;2022-10-17T00:57:36;100412.94;;;17.24;100.00
61318;BME280;47201;40.428;-8.436;2022-10-17T00:59:38;100418.97;;;17.29;100.00
61318;BME280;47201;40.428;-8.436;2022-10-17T01:01:40;100429.41;;;17.32;100.00
61318;BME280;47201;40.428;-8.436;2022-10-17T01:03:40;100413.41;;;17.37;100.00
61318;BME280;47201;40.428;-8.436;2022-10-17T01:05:41;100413.53;;;17.34;100.00
61318;BME280;47201;40.428;-8.436;2022-10-17T01:07:42;100419.41;;;17.42;100.00
61318;BME280;47201;40.428;-8.436;2022-10-17T01:09:44;100423.66;;;17.46;100.00
61318;BME280;47201;40.428;-8.436;2022-10-17T01:13:52;100417.31;;;17.52;100.00
61318;BME280;47201;40.428;-8.436;2022-10-17T01:24:40;100448.84;;;17.56;100.00
61318;BME280;47201;40.428;-8.436;2022-10-17T01:27:07;100449.72;;;17.57;100.00
61318;BME280;47201;40.428;-8.436;2022-10-17T01:29:31;100436.34;;;17.62;100.00
61318;BME280;47201;40.428;-8.436;2022-10-17T01:36:08;100441.72;;;17.58;100.00
61318;BME280;47201;40.428;-8.436;2022-10-17T01:38:17;100448.28;;;17.47;100.00
61318;BME280;47201;40.428;-8.436;2022-10-17T01:40:38;100450.50;;;17.34;100.00
61318;BME280;47201;40.428;-8.436;2022-10-17T01:42:50;100449.78;;;17.28;100.00
61318;BME280;47201;40.428;-8.436;2022-10-17T01:44:56;100454.97;;;17.32;100.00
61318;BME280;47201;40.428;-8.436;2022-10-17T01:47:04;100451.28;;;17.36;100.00
61318;BME280;47201;40.428;-8.436;2022-10-17T01:49:07;100458.91;;;17.45;100.00
61318;BME280;47201;40.428;-8.436;2022-10-17T01:51:10;100462.22;;;17.52;100.00
61318;BME280;47201;40.428;-8.436;2022-10-17T01:53:13;100466.41;;;17.57;100.00
61318;BME280;47201;40.428;-8.436;2022-10-17T01:55:17;100467.16;;;17.61;100.00
61318;BME280;47201;40.428;-8.436;2022-10-17T01:57:21;100477.75;;;17.61;100.00
61318;BME280;47201;40.428;-8.436;2022-10-17T01:59:28;100481.28;;;17.62;100.00
61318;BME280;47201;40.428;-8.436;2022-10-17T02:01:30;100475.06;;;17.63;100.00
61318;BME280;47201;40.428;-8.436;2022-10-17T02:03:36;100472.31;;;17.66;100.00
61318;BME280;47201;40.428;-8.436;2022-10-17T02:05:39;100473.25;;;17.65;100.00
61318;BME280;47201;40.428;-8.436;2022-10-17T02:07:40;100469.66;;;17.66;100.00
61318;BME280;47201;40.428;-8.436;2022-10-17T02:09:41;100467.06;;;17.64;100.00
61318;BME280;47201;40.428;-8.436;2022-10-17T02:11:42;100468.75;;;17.67;100.00
61318;BME280;47201;40.428;-8.436;2022-10-17T02:15:58;100468.75;;;17.67;100.00
61318;BME280;47201;40.428;-8.436;2022-10-17T02:22:35;100474.91;;;17.67;100.00
61318;BME280;47201;40.428;-8.436;2022-10-17T02:24:45;100477.50;;;17.69;100.00
61318;BME280;47201;40.428;-8.436;2022-10-17T02:26:52;100473.88;;;17.71;100.00
61318;BME280;47201;40.428;-8.436;2022-10-17T02:29:05;100478.19;;;17.74;100.00
61318;BME280;47201;40.428;-8.436;2022-10-17T02:31:07;100481.66;;;17.76;100.00
61318;BME280;47201;40.428;-8.436;2022-10-17T02:33:17;100476.22;;;17.81;100.00
61318;BME280;47201;40.428;-8.436;2022-10-17T02:35:19;100474.31;;;17.84;100.00
61318;BME280;47201;40.428;-8.436;2022-10-17T02:37:22;100469.78;;;17.88;100.00
61318;BME280;47201;40.428;-8.436;2022-10-17T02:39:24;100469.63;;;17.92;100.00
61318;BME280;47201;40.428;-8.436;2022-10-17T02:41:26;100466.03;;;17.95;100.00
61318;BME280;47201;40.428;-8.436;2022-10-17T02:43:27;100461.50;;;17.99;100.00
61318;BME280;47201;40.428;-8.436;2022-10-17T02:45:28;100464.25;;;17.94;100.00
61318;BME280;47201;40.428;-8.436;2022-10-17T02:47:32;100462.47;;;17.96;100.00
61318;BME280;47201;40.428;-8.436;2022-10-17T02:49:38;100463.31;;;17.97;100.00
61318;BME280;47201;40.428;-8.436;2022-10-17T02:56:04;100470.09;;;18.04;100.00
61318;BME280;47201;40.428;-8.436;2022-10-17T02:58:13;100475.31;;;18.07;100.00
61318;BME280;47201;40.428;-8.436;2022-10-17T03:00:16;100473.47;;;18.09;100.00
61318;BME280;47201;40.428;-8.436;2022-10-17T03:02:20;100479.69;;;18.08;100.00
61318;BME280;47201;40.428;-8.436;2022-10-17T03:04:20;100472.50;;;18.12;100.00
61318;BME280;47201;40.428;-8.436;2022-10-17T03:06:21;100474.22;;;18.13;100.00
61318;BME280;47201;40.428;-8.436;2022-10-17T03:08:22;100474.22;;;18.13;100.00
61318;BME280;47201;40.428;-8.436;2022-10-17T03:10:23;100468.72;;;18.17;100.00
61318;BME280;47201;40.428;-8.436;2022-10-17T03:12:23;100471.19;;;18.23;100.00
61318;BME280;47201;40.428;-8.436;2022-10-17T03:14:26;100469.31;;;18.26;100.00
61318;BME280;47201;40.428;-8.436;2022-10-17T03:16:26;100477.31;;;18.24;100.00
61318;BME280;47201;40.428;-8.436;2022-10-17T03:18:27;100473.75;;;18.25;100.00
61318;BME280;47201;40.428;-8.436;2022-10-17T03:20:32;100479.22;;;18.20;100.00
61318;BME280;47201;40.428;-8.436;2022-10-17T03:22:33;100480.38;;;18.13;100.00
61318;BME280;47201;40.428;-8.436;2022-10-17T03:24:35;100487.38;;;18.14;100.00
61318;BME280;47201;40.428;-8.436;2022-10-17T03:26:37;100477.94;;;18.07;100.00
61318;BME280;47201;40.428;-8.436;2022-10-17T03:28:38;100475.16;;;18.10;100.00
61318;BME280;47201;40.428;-8.436;2022-10-17T03:30:39;100473.47;;;18.09;100.00
61318;BME280;47201;40.428;-8.436;2022-10-17T03:32:40;100471.75;;;18.08;100.00
61318;BME280;47201;40.428;-8.436;2022-10-17T03:34:40;100477.25;;;18.02;100.00
61318;BME280;47201;40.428;-8.436;2022-10-17T03:36:41;100473.78;;;18.00;100.00
61318;BME280;47201;40.428;-8.436;2022-10-17T03:38:42;100474.81;;;17.96;100.00
61318;BME280;47201;40.428;-8.436;2022-10-17T03:40:44;100469.78;;;17.88;100.00
61318;BME280;47201;40.428;-8.436;2022-10-17T03:42:53;100473.56;;;17.81;100.00
61318;BME280;47201;40.428;-8.436;2022-10-17T03:44:54;100472.81;;;17.77;100.00
61318;BME280;47201;40.428;-8.436;2022-10-17T03:46:56;100468.59;;;17.71;100.00
61318;BME280;47201;40.428;-8.436;2022-10-17T03:48:57;100476.69;;;17.67;100.00
61318;BME280;47201;40.428;-8.436;2022-10-17T03:51:07;100475.16;;;17.59;100.00
61318;BME280;47201;40.428;-8.436;2022-10-17T03:53:14;100474.72;;;17.47;100.00
61318;BME280;47201;40.428;-8.436;2022-10-17T03:55:15;100482.16;;;17.35;100.00
61318;BME280;47201;40.428;-8.436;2022-10-17T03:57:17;100480.69;;;17.26;100.00
61318;BME280;47201;40.428;-8.436;2022-10-17T03:59:18;100479.31;;;17.15;100.00
61318;BME280;47201;40.428;-8.436;2022-10-17T04:01:27;100483.91;;;17.08;100.00
61318;BME280;47201;40.428;-8.436;2022-10-17T04:03:27;100487.38;;;17.10;100.00
61318;BME280;47201;40.428;-8.436;2022-10-17T04:05:28;100483.16;;;17.04;100.00
61318;BME280;47201;40.428;-8.436;2022-10-17T04:07:30;100488.38;;;17.06;100.00
61318;BME280;47201;40.428;-8.436;2022-10-17T04:09:32;100485.84;;;17.03;100.00
61318;BME280;47201;40.428;-8.436;2022-10-17T04:11:38;100481.41;;;17.03;100.00
61318;BME280;47201;40.428;-8.436;2022-10-17T04:13:39;100483.06;;;17.07;100.00
61318;BME280;47201;40.428;-8.436;2022-10-17T04:15:40;100487.47;;;17.07;100.00
61318;BME280;47201;40.428;-8.436;2022-10-17T04:17:41;100496.34;;;17.04;100.00
61318;BME280;47201;40.428;-8.436;2022-10-17T04:19:42;100494.47;;;17.08;100.00
61318;BME280;47201;40.428;-8.436;2022-10-17T04:21:43;100496.28;;;17.06;100.00
61318;BME280;47201;40.428;-8.436;2022-10-17T04:23:44;100497.25;;;17.05;100.00
61318;BME280;47201;40.428;-8.436;2022-10-17T04:25:56;100500.81;;;17.02;100.00
61318;BME280;47201;40.428;-8.436;2022-10-17T04:27:58;100502.75;;;16.97;100.00
61318;BME280;47201;40.428;-8.436;2022-10-17T04:29:59;100503.75;;;16.91;100.00
61318;BME280;47201;40.428;-8.436;2022-10-17T04:31:59;100500.31;;;16.89;100.00
61318;BME280;47201;40.428;-8.436;2022-10-17T04:34:08;100505.69;;;16.86;100.00
61318;BME280;47201;40.428;-8.436;2022-10-17T04:36:10;100504.97;;;16.81;100.00
61318;BME280;47201;40.428;-8.436;2022-10-17T04:38:11;100511.38;;;16.72;100.00
61318;BME280;47201;40.428;-8.436;2022-10-17T04:40:11;100501.75;;;16.71;100.00
61318;BME280;47201;40.428;-8.436;2022-10-17T04:42:12;100508.78;;;16.71;100.00
61318;BME280;47201;40.428;-8.436;2022-10-17T04:44:14;100514.00;;;16.72;100.00
61318;BME280;47201;40.428;-8.436;2022-10-17T04:46:20;100516.63;;;16.74;100.00
61318;BME280;47201;40.428;-8.436;2022-10-17T04:48:21;100511.88;;;16.85;100.00
61318;BME280;47201;40.428;-8.436;2022-10-17T04:50:22;100525.06;;;16.85;100.00
61318;BME280;47201;40.428;-8.436;2022-10-17T04:52:42;100523.44;;;16.81;100.00
61318;BME280;47201;40.428;-8.436;2022-10-17T04:54:43;100530.63;;;16.76;100.00
61318;BME280;47201;40.428;-8.436;2022-10-17T04:56:46;100540.41;;;16.72;100.00
61318;BME280;47201;40.428;-8.436;2022-10-17T04:58:48;100534.59;;;16.61;100.00
61318;BME280;47201;40.428;-8.436;2022-10-17T05:00:49;100537.38;;;16.56;100.00
61318;BME280;47201;40.428;-8.436;2022-10-17T05:02:55;100538.19;;;16.58;100.00
61318;BME280;47201;40.428;-8.436;2022-10-17T05:04:56;100534.53;;;16.64;100.00
61318;BME280;47201;40.428;-8.436;2022-10-17T05:06:57;100535.31;;;16.66;100.00
61318;BME280;47201;40.428;-8.436;2022-10-17T05:09:36;100536.47;;;16.57;100.00
61318;BME280;47201;40.428;-8.436;2022-10-17T05:11:37;100537.59;;;16.48;100.00
61318;BME280;47201;40.428;-8.436;2022-10-17T05:13:38;100541.34;;;16.40;100.00
61318;BME280;47201;40.428;-8.436;2022-10-17T05:15:39;100538.00;;;16.34;100.00
61318;BME280;47201;40.428;-8.436;2022-10-17T05:17:39;100551.47;;;16.24;100.00
61318;BME280;47201;40.428;-8.436;2022-10-17T05:19:40;100550.03;;;16.12;100.00
61318;BME280;47201;40.428;-8.436;2022-10-17T05:21:42;100550.22;;;16.06;100.00
61318;BME280;47201;40.428;-8.436;2022-10-17T05:23:42;100543.28;;;16.01;100.00
61318;BME280;47201;40.428;-8.436;2022-10-17T05:25:43;100551.03;;;16.08;100.00
61318;BME280;47201;40.428;-8.436;2022-10-17T05:27:45;100551.72;;;16.14;100.00
61318;BME280;47201;40.428;-8.436;2022-10-17T05:29:45;100556.81;;;16.21;100.00
61318;BME280;47201;40.428;-8.436;2022-10-17T05:31:54;100554.97;;;16.24;100.00
61318;BME280;47201;40.428;-8.436;2022-10-17T05:33:55;100560.16;;;16.27;100.00
61318;BME280;47201;40.428;-8.436;2022-10-17T05:35:59;100562.75;;;16.29;100.00
61318;BME280;47201;40.428;-8.436;2022-10-17T05:38:00;100567.31;;;16.24;100.00
61318;BME280;47201;40.428;-8.436;2022-10-17T05:40:03;100574.59;;;16.14;100.00
61318;BME280;47201;40.428;-8.436;2022-10-17T05:42:07;100577.44;;;16.06;100.00
61318;BME280;47201;40.428;-8.436;2022-10-17T05:44:08;100580.22;;;16.00;100.00
61318;BME280;47201;40.428;-8.436;2022-10-17T05:46:15;100576.81;;;15.96;100.00
61318;BME280;47201;40.428;-8.436;2022-10-17T05:48:16;100581.19;;;15.97;100.00
61318;BME280;47201;40.428;-8.436;2022-10-17T05:50:17;100582.97;;;15.97;100.00
61318;BME280;47201;40.428;-8.436;2022-10-17T05:52:35;100581.13;;;16.00;100.00
61318;BME280;47201;40.428;-8.436;2022-10-17T05:54:43;100585.50;;;16.00;100.00
61318;BME280;47201;40.428;-8.436;2022-10-17T05:56:44;100584.56;;;16.02;100.00
61318;BME280;47201;40.428;-8.436;2022-10-17T05:58:45;100590.53;;;16.09;100.00
61318;BME280;47201;40.428;-8.436;2022-10-17T06:01:01;100592.94;;;16.18;100.00
61318;BME280;47201;40.428;-8.436;2022-10-17T06:03:03;100591.81;;;16.27;100.00
61318;BME280;47201;40.428;-8.436;2022-10-17T06:05:06;100594.25;;;16.35;100.00
61318;BME280;47201;40.428;-8.436;2022-10-17T06:07:07;100599.31;;;16.43;100.00
61318;BME280;47201;40.428;-8.436;2022-10-17T06:09:08;100600.00;;;16.49;100.00
61318;BME280;47201;40.428;-8.436;2022-10-17T06:11:12;100595.22;;;16.64;100.00
61318;BME280;47201;40.428;-8.436;2022-10-17T06:13:13;100601.88;;;16.77;100.00
61318;BME280;47201;40.428;-8.436;2022-10-17T06:15:14;100602.34;;;16.90;100.00
61318;BME280;47201;40.428;-8.436;2022-10-17T06:17:18;100607.50;;;16.96;100.00
61318;BME280;47201;40.428;-8.436;2022-10-17T06:19:19;100611.63;;;17.05;100.00
61318;BME280;47201;40.428;-8.436;2022-10-17T06:21:22;100611.25;;;17.18;100.00
61318;BME280;47201;40.428;-8.436;2022-10-17T06:23:24;100603.81;;;17.31;100.00
61318;BME280;47201;40.428;-8.436;2022-10-17T06:25:36;100607.81;;;17.44;100.00
61318;BME280;47201;40.428;-8.436;2022-10-17T06:27:37;100607.44;;;17.56;100.00
61318;BME280;47201;40.428;-8.436;2022-10-17T06:29:38;100601.81;;;17.66;100.00
61318;BME280;47201;40.428;-8.436;2022-10-17T06:31:39;100598.78;;;17.78;100.00
61318;BME280;47201;40.428;-8.436;2022-10-17T06:33:40;100600.41;;;17.82;100.00
61318;BME280;47201;40.428;-8.436;2022-10-17T06:35:41;100602.19;;;17.82;100.00
61318;BME280;47201;40.428;-8.436;2022-10-17T06:37:42;100607.63;;;17.77;100.00
61318;BME280;47201;40.428;-8.436;2022-10-17T06:39:43;100603.53;;;17.68;100.00
61318;BME280;47201;40.428;-8.436;2022-10-17T06:41:46;100611.97;;;17.51;100.00
61318;BME280;47201;40.428;-8.436;2022-10-17T06:43:51;100609.94;;;17.33;100.00
61318;BME280;47201;40.428;-8.436;2022-10-17T06:46:16;100613.09;;;17.16;100.00
61318;BME280;47201;40.428;-8.436;2022-10-17T06:48:27;100618.75;;;17.03;100.00
61318;BME280;47201;40.428;-8.436;2022-10-17T06:50:48;100619.94;;;16.93;100.00
61318;BME280;47201;40.428;-8.436;2022-10-17T06:52:52;100616.50;;;16.88;100.00
61318;BME280;47201;40.428;-8.436;2022-10-17T06:55:22;100613.09;;;16.84;100.00
61318;BME280;47201;40.428;-8.436;2022-10-17T06:57:40;100617.28;;;16.93;100.00
61318;BME280;47201;40.428;-8.436;2022-10-17T06:59:59;100616.06;;;17.05;100.00
61318;BME280;47201;40.428;-8.436;2022-10-17T07:02:09;100613.19;;;17.12;100.00
61318;BME280;47201;40.428;-8.436;2022-10-17T07:04:11;100618.22;;;17.20;100.00
61318;BME280;47201;40.428;-8.436;2022-10-17T07:06:12;100615.72;;;17.44;100.00
61318;BME280;47201;40.428;-8.436;2022-10-17T07:08:14;100616.69;;;17.70;100.00
61318;BME280;47201;40.428;-8.436;2022-10-17T07:10:16;100617.78;;;17.89;100.00
61318;BME280;47201;40.428;-8.436;2022-10-17T07:12:17;100617.38;;;18.03;100.00
61318;BME280;47201;40.428;-8.436;2022-10-17T07:14:18;100621.47;;;18.12;100.00
61318;BME280;47201;40.428;-8.436;2022-10-17T07:16:20;100625.69;;;18.18;100.00
61318;BME280;47201;40.428;-8.436;2022-10-17T07:18:25;100631.91;;;18.17;100.00
61318;BME280;47201;40.428;-8.436;2022-10-17T07:20:25;100636.00;;;18.26;100.00
61318;BME280;47201;40.428;-8.436;2022-10-17T07:22:26;100642.13;;;18.28;100.00
61318;BME280;47201;40.428;-8.436;2022-10-17T07:24:30;100645.50;;;18.31;100.00
61318;BME280;47201;40.428;-8.436;2022-10-17T07:26:39;100650.66;;;18.36;100.00
61318;BME280;47201;40.428;-8.436;2022-10-17T07:28:41;100647.91;;;18.39;100.00
61318;BME280;47201;40.428;-8.436;2022-10-17T07:30:54;100651.94;;;18.49;100.00
61318;BME280;47201;40.428;-8.436;2022-10-17T07:32:55;100653.44;;;18.57;100.00
61318;BME280;47201;40.428;-8.436;2022-10-17T07:34:56;100658.41;;;18.66;100.00
61318;BME280;47201;40.428;-8.436;2022-10-17T07:36:56;100667.47;;;18.84;100.00
61318;BME280;47201;40.428;-8.436;2022-10-17T07:38:57;100670.81;;;18.89;100.00
61318;BME280;47201;40.428;-8.436;2022-10-17T07:41:00;100681.94;;;18.99;100.00
61318;BME280;47201;40.428;-8.436;2022-10-17T07:43:06;100674.56;;;19.09;100.00
61318;BME280;47201;40.428;-8.436;2022-10-17T07:45:12;100678.53;;;19.21;100.00
61318;BME280;47201;40.428;-8.436;2022-10-17T07:47:16;100678.97;;;19.32;100.00
61318;BME280;47201;40.428;-8.436;2022-10-17T07:49:18;100679.84;;;19.55;100.00
61318;BME280;47201;40.428;-8.436;2022-10-17T07:51:19;100682.16;;;19.64;100.00
61318;BME280;47201;40.428;-8.436;2022-10-17T07:53:21;100690.41;;;19.78;100.00
61318;BME280;47201;40.428;-8.436;2022-10-17T07:55:24;100682.16;;;19.86;100.00
61318;BME280;47201;40.428;-8.436;2022-10-17T07:57:24;100684.78;;;19.88;100.00
61318;BME280;47201;40.428;-8.436;2022-10-17T07:59:25;100685.06;;;20.02;100.00
61318;BME280;47201;40.428;-8.436;2022-10-17T08:01:25;100694.53;;;20.08;100.00
61318;BME280;47201;40.428;-8.436;2022-10-17T08:03:27;100699.16;;;20.25;100.00
61318;BME280;47201;40.428;-8.436;2022-10-17T08:05:29;100702.84;;;20.43;100.00
61318;BME280;47201;40.428;-8.436;2022-10-17T08:07:30;100710.88;;;20.62;100.00
61318;BME280;47201;40.428;-8.436;2022-10-17T08:09:31;100707.06;;;20.68;100.00
61318;BME280;47201;40.428;-8.436;2022-10-17T08:11:32;100714.72;;;20.75;100.00
61318;BME280;47201;40.428;-8.436;2022-10-17T08:13:35;100714.06;;;20.91;100.00
61318;BME280;47201;40.428;-8.436;2022-10-17T08:15:35;100715.69;;;21.33;100.00
61318;BME280;47201;40.428;-8.436;2022-10-17T08:17:36;100723.03;;;22.03;100.00
61318;BME280;47201;40.428;-8.436;2022-10-17T08:19:38;100723.59;;;23.47;100.00
61318;BME280;47201;40.428;-8.436;2022-10-17T08:21:39;100729.16;;;24.83;100.00
61318;BME280;47201;40.428;-8.436;2022-10-17T08:23:40;100742.47;;;26.12;92.49
61318;BME280;47201;40.428;-8.436;2022-10-17T08:25:41;100753.41;;;26.62;89.88
61318;BME280;47201;40.428;-8.436;2022-10-17T08:27:41;100755.31;;;26.60;90.26
61318;BME280;47201;40.428;-8.436;2022-10-17T08:29:42;100763.16;;;26.10;92.53
61318;BME280;47201;40.428;-8.436;2022-10-17T08:31:42;100766.59;;;25.27;94.67
61318;BME280;47201;40.428;-8.436;2022-10-17T08:33:44;100763.28;;;24.64;97.81
61318;BME280;47201;40.428;-8.436;2022-10-17T08:35:45;100763.25;;;24.03;100.00
61318;BME280;47201;40.428;-8.436;2022-10-17T08:37:46;100762.19;;;23.41;100.00
61318;BME280;47201;40.428;-8.436;2022-10-17T08:39:46;100759.13;;;22.80;100.00
61318;BME280;47201;40.428;-8.436;2022-10-17T08:41:51;100758.41;;;22.42;100.00
61318;BME280;47201;40.428;-8.436;2022-10-17T08:45:55;100763.66;;;21.89;100.00
61318;BME280;47201;40.428;-8.436;2022-10-17T08:48:03;100768.38;;;21.82;100.00
61318;BME280;47201;40.428;-8.436;2022-10-17T08:50:06;100768.41;;;21.63;100.00
61318;BME280;47201;40.428;-8.436;2022-10-17T08:52:14;100765.63;;;21.46;100.00
61318;BME280;47201;40.428;-8.436;2022-10-17T08:54:19;100772.88;;;21.42;100.00
61318;BME280;47201;40.428;-8.436;2022-10-17T08:58:31;100766.78;;;21.40;100.00
61318;BME280;47201;40.428;-8.436;2022-10-17T09:00:33;100775.75;;;21.56;100.00
61318;BME280;47201;40.428;-8.436;2022-10-17T09:07:09;100771.16;;;22.35;100.00
61318;BME280;47201;40.428;-8.436;2022-10-17T09:15:33;100790.72;;;24.05;100.00
61318;BME280;47201;40.428;-8.436;2022-10-17T09:20:03;100793.00;;;24.58;98.97
61318;BME280;47201;40.428;-8.436;2022-10-17T09:22:08;100796.50;;;24.44;100.00
61318;BME280;47201;40.428;-8.436;2022-10-17T09:24:15;100806.19;;;24.14;100.00
61318;BME280;47201;40.428;-8.436;2022-10-17T09:26:17;100802.56;;;24.62;99.53
61318;BME280;47201;40.428;-8.436;2022-10-17T09:28:24;100811.94;;;24.99;95.49
61318;BME280;47201;40.428;-8.436;2022-10-17T09:30:29;100805.91;;;25.55;94.08
61318;BME280;47201;40.428;-8.436;2022-10-17T09:32:32;100813.94;;;26.11;92.99
61318;BME280;47201;40.428;-8.436;2022-10-17T09:34:32;100824.13;;;26.47;88.75
61318;BME280;47201;40.428;-8.436;2022-10-17T09:36:34;100820.25;;;26.78;86.49
61318;BME280;47201;40.428;-8.436;2022-10-17T09:38:46;100833.50;;;27.33;83.34
61318;BME280;47201;40.428;-8.436;2022-10-17T09:40:58;100826.53;;;27.04;82.46
61318;BME280;47201;40.428;-8.436;2022-10-17T09:43:04;100829.84;;;26.55;84.76
61318;BME280;47201;40.428;-8.436;2022-10-17T09:45:21;100836.44;;;25.94;88.19
61318;BME280;47201;40.428;-8.436;2022-10-17T09:49:34;100821.81;;;25.13;94.07
61318;BME280;47201;40.428;-8.436;2022-10-17T09:51:36;100822.97;;;24.79;96.88
61318;BME280;47201;40.428;-8.436;2022-10-17T09:53:38;100820.34;;;24.47;99.34
61318;BME280;47201;40.428;-8.436;2022-10-17T09:55:43;100827.38;;;24.33;100.00
61318;BME280;47201;40.428;-8.436;2022-10-17T09:57:57;100827.97;;;24.22;100.00
61318;BME280;47201;40.428;-8.436;2022-10-17T09:59:59;100815.50;;;24.23;100.00
61318;BME280;47201;40.428;-8.436;2022-10-17T10:02:07;100829.66;;;24.55;100.00
61318;BME280;47201;40.428;-8.436;2022-10-17T10:04:09;100820.47;;;25.21;98.84
61318;BME280;47201;40.428;-8.436;2022-10-17T10:06:14;100825.09;;;26.04;92.70
61318;BME280;47201;40.428;-8.436;2022-10-17T10:08:16;100822.56;;;27.49;84.88
61318;BME280;47201;40.428;-8.436;2022-10-17T10:10:22;100826.03;;;29.66;56.26
61318;BME280;47201;40.428;-8.436;2022-10-17T10:12:25;100834.22;;;31.17;50.37
61318;BME280;47201;40.428;-8.436;2022-10-17T10:14:32;100832.84;;;32.15;45.57
61318;BME280;47201;40.428;-8.436;2022-10-17T10:16:40;100839.06;;;31.55;46.40
61318;BME280;47201;40.428;-8.436;2022-10-17T10:18:41;100846.44;;;30.03;49.59
61318;BME280;47201;40.428;-8.436;2022-10-17T10:20:42;100832.47;;;29.18;52.70
61318;BME280;47201;40.428;-8.436;2022-10-17T10:22:57;100836.22;;;28.69;55.53
61318;BME280;47201;40.428;-8.436;2022-10-17T10:27:11;100830.84;;;28.69;54.55
61318;BME280;47201;40.428;-8.436;2022-10-17T10:31:16;100832.63;;;28.21;53.92
61318;BME280;47201;40.428;-8.436;2022-10-17T10:33:26;100830.88;;;27.96;52.99
61318;BME280;47201;40.428;-8.436;2022-10-17T10:35:31;100825.06;;;28.26;52.54
61318;BME280;47201;40.428;-8.436;2022-10-17T10:37:34;100826.13;;;28.72;50.90
61318;BME280;47201;40.428;-8.436;2022-10-17T10:39:42;100835.22;;;28.58;50.16
61318;BME280;47201;40.428;-8.436;2022-10-17T10:41:46;100840.06;;;27.67;53.35
61318;BME280;47201;40.428;-8.436;2022-10-17T10:43:48;100838.97;;;27.05;55.66
61318;BME280;47201;40.428;-8.436;2022-10-17T10:45:51;100840.34;;;26.03;59.14
61318;BME280;47201;40.428;-8.436;2022-10-17T10:50:08;100838.19;;;25.66;60.57
61318;BME280;47201;40.428;-8.436;2022-10-17T10:52:21;100825.44;;;25.85;59.49
61318;BME280;47201;40.428;-8.436;2022-10-17T10:54:36;100827.41;;;25.95;58.53
61318;BME280;47201;40.428;-8.436;2022-10-17T10:56:42;100828.22;;;25.83;59.37
61318;BME280;47201;40.428;-8.436;2022-10-17T10:59:08;100829.38;;;25.79;60.53
61318;BME280;47201;40.428;-8.436;2022-10-17T11:03:36;100828.47;;;26.62;57.47
61318;BME280;47201;40.428;-8.436;2022-10-17T11:10:27;100827.94;;;27.10;57.19
61318;BME280;47201;40.428;-8.436;2022-10-17T11:21:18;100839.50;;;26.30;56.91
61318;BME280;47201;40.428;-8.436;2022-10-17T11:26:04;100841.72;;;25.81;59.13
61318;BME280;47201;40.428;-8.436;2022-10-17T11:28:16;100842.75;;;27.16;55.75
61318;BME280;47201;40.428;-8.436;2022-10-17T11:30:17;100844.53;;;27.80;54.21
61318;BME280;47201;40.428;-8.436;2022-10-17T11:32:25;100845.97;;;28.34;50.77
61318;BME280;47201;40.428;-8.436;2022-10-17T11:34:31;100843.50;;;29.26;48.95
61318;BME280;47201;40.428;-8.436;2022-10-17T11:36:33;100846.19;;;29.72;47.45
61318;BME280;47201;40.428;-8.436;2022-10-17T11:38:37;100851.69;;;29.13;48.67
61318;BME280;47201;40.428;-8.436;2022-10-17T11:40:39;100848.34;;;28.39;50.80
61318;BME280;47201;40.428;-8.436;2022-10-17T11:42:45;100851.25;;;27.98;51.82
61318;BME280;47201;40.428;-8.436;2022-10-17T11:44:50;100846.59;;;27.63;52.79
61318;BME280;47201;40.428;-8.436;2022-10-17T11:46:55;100857.88;;;27.17;54.43